www.cux-wetter.de
Wetterdaten: Mittwoch, 18.02.2015
Datum Zeit Temp. A. Feuchte A. Luftdruck Regen Wind Richtung Richtung Sonnenschein Solar Taupunkt Windchill Windben
18.02.2015 00:00 2,1 C 88 % 1036,5 hPa 0,0 l/m 13,8 km/h (3 Bft) W 280 0 min 0 W/m 0,3 C -3,7 C 13,8 km/h (3 Bft)
18.02.2015 00:15 2,1 C 88 % 1036,5 hPa 0,0 l/m 15,6 km/h (3 Bft) W 280 0 min 0 W/m 0,3 C -4,8 C 15,6 km/h (3 Bft)
18.02.2015 00:30 2,0 C 88 % 1036,5 hPa 0,0 l/m 13,5 km/h (3 Bft) W 275 0 min 0 W/m 0,2 C -3,7 C 13,5 km/h (3 Bft)
18.02.2015 00:45 2,0 C 88 % 1036,5 hPa 0,0 l/m 13,5 km/h (3 Bft) W 275 0 min 0 W/m 0,2 C -3,7 C 13,5 km/h (3 Bft)
18.02.2015 01:00 1,8 C 89 % 1036,5 hPa 0,0 l/m 13,1 km/h (3 Bft) W 270 0 min 0 W/m 0,2 C -3,7 C 13,1 km/h (3 Bft)
18.02.2015 01:15 2,0 C 89 % 1036,5 hPa 0,0 l/m 15,5 km/h (3 Bft) W 280 0 min 0 W/m 0,4 C -4,8 C 15,5 km/h (3 Bft)
18.02.2015 01:30 1,8 C 90 % 1036,5 hPa 0,0 l/m 13,8 km/h (3 Bft) W 265 0 min 0 W/m 0,3 C -4,1 C 13,8 km/h (3 Bft)
18.02.2015 01:45 1,6 C 90 % 1036,5 hPa 0,0 l/m 12,9 km/h (3 Bft) W 260 0 min 0 W/m 0,1 C -3,8 C 12,9 km/h (3 Bft)
18.02.2015 02:00 1,5 C 90 % 1036,5 hPa 0,0 l/m 14,5 km/h (3 Bft) W-SW 255 0 min 0 W/m 0,0 C -4,9 C 14,5 km/h (3 Bft)
18.02.2015 02:15 1,6 C 90 % 1036,5 hPa 0,0 l/m 15,3 km/h (3 Bft) W 265 0 min 0 W/m 0,1 C -5,2 C 15,3 km/h (3 Bft)
18.02.2015 02:30 1,6 C 90 % 1036,5 hPa 0,0 l/m 13,8 km/h (3 Bft) W 260 0 min 0 W/m 0,1 C -4,3 C 13,8 km/h (3 Bft)
18.02.2015 02:45 1,7 C 90 % 1036,5 hPa 0,0 l/m 14,1 km/h (3 Bft) W 260 0 min 0 W/m 0,2 C -4,4 C 14,1 km/h (3 Bft)
18.02.2015 03:00 1,6 C 90 % 1036,5 hPa 0,0 l/m 14,4 km/h (3 Bft) W 260 0 min 0 W/m 0,1 C -4,7 C 14,4 km/h (3 Bft)
18.02.2015 03:15 1,6 C 90 % 1036,5 hPa 0,0 l/m 14,5 km/h (3 Bft) W 275 0 min 0 W/m 0,1 C -4,8 C 14,5 km/h (3 Bft)
18.02.2015 03:30 1,6 C 90 % 1036,5 hPa 0,0 l/m 15,1 km/h (3 Bft) W-NW 285 0 min 0 W/m 0,1 C -5,1 C 15,1 km/h (3 Bft)
18.02.2015 03:44 1,4 C 90 % 1036,5 hPa 0,0 l/m 17,0 km/h (3 Bft) W 260 0 min 0 W/m -0,1 C -6,4 C 17,0 km/h (3 Bft)
18.02.2015 04:00 1,2 C 90 % 1036,5 hPa 0,0 l/m 12,1 km/h (2 Bft) W 265 0 min 0 W/m -0,3 C -3,7 C 12,1 km/h (2 Bft)
18.02.2015 04:15 1,1 C 90 % 1036,5 hPa 0,0 l/m 13,0 km/h (3 Bft) W 260 0 min 0 W/m -0,4 C -4,4 C 13,0 km/h (3 Bft)
18.02.2015 04:30 0,9 C 91 % 1036,5 hPa 0,0 l/m 14,3 km/h (3 Bft) W 260 0 min 0 W/m -0,4 C -5,5 C 14,3 km/h (3 Bft)
18.02.2015 04:45 0,6 C 91 % 1036,5 hPa 0,0 l/m 19,0 km/h (3 Bft) W 260 0 min 0 W/m -0,7 C -8,4 C 19,0 km/h (3 Bft)
18.02.2015 05:00 0,4 C 91 % 1036,5 hPa 0,0 l/m 15,7 km/h (3 Bft) W 270 0 min 0 W/m -0,9 C -6,9 C 15,7 km/h (3 Bft)
18.02.2015 05:15 0,4 C 91 % 1036,5 hPa 0,0 l/m 21,4 km/h (4 Bft) W 275 0 min 0 W/m -0,9 C -9,7 C 21,4 km/h (4 Bft)
18.02.2015 05:29 0,4 C 91 % 1036,5 hPa 0,0 l/m 17,2 km/h (3 Bft) W 275 0 min 0 W/m -0,9 C -7,7 C 17,2 km/h (3 Bft)
18.02.2015 05:45 0,3 C 91 % 1036,5 hPa 0,0 l/m 18,4 km/h (3 Bft) W 260 0 min 0 W/m -1,0 C -8,5 C 18,4 km/h (3 Bft)
18.02.2015 06:00 0,3 C 91 % 1036,5 hPa 0,0 l/m 23,5 km/h (4 Bft) W 265 0 min 0 W/m -1,0 C -10,7 C 23,5 km/h (4 Bft)
18.02.2015 06:15 0,4 C 91 % 1036,5 hPa 0,0 l/m 17,1 km/h (3 Bft) W 275 0 min 0 W/m -0,9 C -7,7 C 17,1 km/h (3 Bft)
18.02.2015 06:30 0,6 C 91 % 1036,5 hPa 0,0 l/m 22,3 km/h (4 Bft) W 265 0 min 0 W/m -0,7 C -9,9 C 22,3 km/h (4 Bft)
18.02.2015 06:45 0,4 C 91 % 1036,5 hPa 0,0 l/m 20,9 km/h (4 Bft) W 260 0 min 0 W/m -0,9 C -9,5 C 20,9 km/h (4 Bft)
18.02.2015 07:00 0,4 C 91 % 1036,5 hPa 0,0 l/m 15,5 km/h (3 Bft) W 260 0 min 0 W/m -0,9 C -6,8 C 15,5 km/h (3 Bft)
18.02.2015 07:15 0,3 C 91 % 1036,5 hPa 0,0 l/m 21,1 km/h (4 Bft) W 270 0 min 0 W/m -1,0 C -9,7 C 21,1 km/h (4 Bft)
18.02.2015 07:30 0,2 C 91 % 1036,5 hPa 0,0 l/m 19,7 km/h (3 Bft) W 265 0 min 0 W/m -1,1 C -9,2 C 19,7 km/h (3 Bft)
18.02.2015 07:45 0,1 C 91 % 1037,5 hPa 0,0 l/m 16,5 km/h (3 Bft) W 265 0 min 0 W/m -1,2 C -7,7 C 16,5 km/h (3 Bft)
18.02.2015 08:00 0,1 C 91 % 1037,5 hPa 0,0 l/m 18,4 km/h (3 Bft) W 265 0 min 0 W/m -1,2 C -8,7 C 18,4 km/h (3 Bft)
18.02.2015 08:15 0,2 C 91 % 1037,5 hPa 0,0 l/m 22,6 km/h (4 Bft) W 270 0 min 0 W/m -1,1 C -10,5 C 22,6 km/h (4 Bft)
18.02.2015 08:30 0,1 C 91 % 1037,5 hPa 0,0 l/m 22,0 km/h (4 Bft) W 270 0 min 0 W/m -1,2 C -10,4 C 22,0 km/h (4 Bft)
18.02.2015 08:45 0,1 C 91 % 1037,5 hPa 0,0 l/m 20,2 km/h (4 Bft) W 265 0 min 0 W/m -1,2 C -9,6 C 20,2 km/h (4 Bft)
18.02.2015 09:00 0,3 C 91 % 1037,5 hPa 0,0 l/m 19,3 km/h (3 Bft) W 265 0 min 0 W/m -1,0 C -8,9 C 19,3 km/h (3 Bft)
18.02.2015 09:15 0,3 C 91 % 1037,5 hPa 0,0 l/m 25,2 km/h (4 Bft) W 270 0 min 0 W/m -1,0 C -11,4 C 25,2 km/h (4 Bft)
18.02.2015 09:30 0,6 C 91 % 1037,5 hPa 0,0 l/m 21,6 km/h (4 Bft) W 265 0 min 0 W/m -0,7 C -9,6 C 21,6 km/h (4 Bft)
18.02.2015 09:45 0,7 C 91 % 1037,5 hPa 0,0 l/m 22,7 km/h (4 Bft) W 275 0 min 0 W/m -0,6 C -9,9 C 22,7 km/h (4 Bft)
18.02.2015 10:00 0,9 C 91 % 1036,5 hPa 0,0 l/m 26,0 km/h (4 Bft) W 270 0 min 0 W/m -0,4 C -10,9 C 26,0 km/h (4 Bft)
18.02.2015 10:15 1,3 C 90 % 1036,5 hPa 0,0 l/m 23,4 km/h (4 Bft) W 260 0 min 0 W/m -0,2 C -9,4 C 23,4 km/h (4 Bft)
18.02.2015 10:30 1,6 C 90 % 1036,5 hPa 0,0 l/m 25,6 km/h (4 Bft) W 260 0 min 0 W/m 0,1 C -9,8 C 25,6 km/h (4 Bft)
18.02.2015 10:45 2,0 C 89 % 1036,5 hPa 0,0 l/m 21,7 km/h (4 Bft) W 260 0 min 0 W/m 0,4 C -7,8 C 21,7 km/h (4 Bft)
18.02.2015 11:00 2,8 C 90 % 1036,5 hPa 0,0 l/m 24,8 km/h (4 Bft) W 265 0 min 0 W/m 1,3 C -7,9 C 24,8 km/h (4 Bft)
18.02.2015 11:14 5,7 C 88 % 1036,5 hPa 0,0 l/m 27,7 km/h (5 Bft) W 275 0 min 0 W/m 3,9 C -4,8 C 27,7 km/h (5 Bft)
18.02.2015 11:30 6,6 C 81 % 1036,5 hPa 0,0 l/m 28,5 km/h (5 Bft) W 265 0 min 0 W/m 3,6 C -3,7 C 28,5 km/h (5 Bft)
18.02.2015 11:45 7,0 C 77 % 1036,5 hPa 0,0 l/m 34,5 km/h (5 Bft) W 265 0 min 0 W/m 3,2 C -4,6 C 34,5 km/h (5 Bft)
18.02.2015 11:59 7,0 C 77 % 1035,5 hPa 0,0 l/m 34,4 km/h (5 Bft) W 265 0 min 0 W/m 3,2 C -4,5 C 34,4 km/h (5 Bft)
18.02.2015 12:15 7,0 C 77 % 1035,5 hPa 0,0 l/m 34,5 km/h (5 Bft) W 275 0 min 0 W/m 3,2 C -4,6 C 34,5 km/h (5 Bft)
18.02.2015 12:30 7,0 C 77 % 1035,5 hPa 0,0 l/m 35,4 km/h (5 Bft) W 265 0 min 0 W/m 3,2 C -4,7 C 35,4 km/h (5 Bft)
18.02.2015 12:45 7,0 C 77 % 1035,5 hPa 0,0 l/m 31,6 km/h (5 Bft) W 270 0 min 0 W/m 3,2 C -3,9 C 31,6 km/h (5 Bft)
18.02.2015 13:00 7,0 C 77 % 1035,5 hPa 0,0 l/m 34,0 km/h (5 Bft) W 270 0 min 0 W/m 3,2 C -4,5 C 34,0 km/h (5 Bft)
18.02.2015 13:15 7,0 C 77 % 1035,5 hPa 0,0 l/m 34,4 km/h (5 Bft) W 275 0 min 0 W/m 3,2 C -4,5 C 34,4 km/h (5 Bft)
18.02.2015 13:30 7,0 C 77 % 1035,5 hPa 0,0 l/m 34,4 km/h (5 Bft) W 270 0 min 0 W/m 3,2 C -4,5 C 34,4 km/h (5 Bft)
18.02.2015 13:45 7,0 C 77 % 1034,5 hPa 0,0 l/m 34,4 km/h (5 Bft) W 275 0 min 0 W/m 3,2 C -4,5 C 34,4 km/h (5 Bft)
18.02.2015 14:00 7,0 C 77 % 1034,5 hPa 0,0 l/m 32,5 km/h (5 Bft) W 270 0 min 0 W/m 3,2 C -4,1 C 32,5 km/h (5 Bft)
18.02.2015 14:15 7,0 C 77 % 1034,5 hPa 0,0 l/m 38,2 km/h (6 Bft) W 275 0 min 0 W/m 3,2 C -5,2 C 38,2 km/h (6 Bft)
18.02.2015 14:30 7,0 C 77 % 1034,5 hPa 0,0 l/m 31,8 km/h (5 Bft) W 275 0 min 0 W/m 3,2 C -4,0 C 31,8 km/h (5 Bft)
18.02.2015 14:45 7,0 C 77 % 1034,5 hPa 0,0 l/m 35,6 km/h (5 Bft) W 270 0 min 0 W/m 3,2 C -4,8 C 35,6 km/h (5 Bft)
18.02.2015 15:00 7,0 C 77 % 1034,5 hPa 0,0 l/m 29,6 km/h (5 Bft) W 270 0 min 0 W/m 3,2 C -3,5 C 29,6 km/h (5 Bft)
18.02.2015 15:15 7,0 C 77 % 1033,5 hPa 0,0 l/m 36,4 km/h (5 Bft) W 270 0 min 0 W/m 3,2 C -4,9 C 36,4 km/h (5 Bft)
18.02.2015 15:30 7,0 C 77 % 1033,5 hPa 0,0 l/m 33,1 km/h (5 Bft) W 270 0 min 0 W/m 3,2 C -4,3 C 33,1 km/h (5 Bft)
18.02.2015 15:45 7,0 C 77 % 1033,5 hPa 0,0 l/m 30,8 km/h (5 Bft) W 270 0 min 0 W/m 3,2 C -3,8 C 30,8 km/h (5 Bft)
18.02.2015 16:00 7,0 C 77 % 1033,5 hPa 0,0 l/m 27,5 km/h (5 Bft) W 265 0 min 0 W/m 3,2 C -2,9 C 27,5 km/h (5 Bft)
18.02.2015 16:14 6,1 C 95 % 1033,5 hPa 0,0 l/m 30,5 km/h (5 Bft) W 265 0 min 0 W/m 5,4 C -5,0 C 30,5 km/h (5 Bft)
18.02.2015 16:30 6,1 C 95 % 1033,5 hPa 0,0 l/m 30,3 km/h (5 Bft) W 260 0 min 0 W/m 5,4 C -4,9 C 30,3 km/h (5 Bft)
18.02.2015 16:45 6,1 C 95 % 1033,5 hPa 0,0 l/m 28,1 km/h (5 Bft) W 265 0 min 0 W/m 5,4 C -4,3 C 28,1 km/h (5 Bft)
18.02.2015 17:00 5,8 C 95 % 1032,5 hPa 0,0 l/m 26,3 km/h (4 Bft) W-SW 250 0 min 0 W/m 5,1 C -4,2 C 26,3 km/h (4 Bft)
18.02.2015 17:15 5,8 C 95 % 1032,5 hPa 0,0 l/m 26,0 km/h (4 Bft) W-SW 255 0 min 0 W/m 5,1 C -4,2 C 26,0 km/h (4 Bft)
18.02.2015 17:30 5,8 C 95 % 1032,5 hPa 0,0 l/m 24,0 km/h (4 Bft) W 270 0 min 0 W/m 5,1 C -3,5 C 24,0 km/h (4 Bft)
18.02.2015 17:45 5,8 C 95 % 1032,5 hPa 0,0 l/m 28,1 km/h (5 Bft) W 265 0 min 0 W/m 5,1 C -4,8 C 28,1 km/h (5 Bft)
18.02.2015 18:00 5,8 C 95 % 1032,5 hPa 0,0 l/m 32,1 km/h (5 Bft) W 260 0 min 0 W/m 5,1 C -5,8 C 32,1 km/h (5 Bft)
18.02.2015 18:15 5,8 C 95 % 1032,5 hPa 0,0 l/m 24,7 km/h (4 Bft) W 265 0 min 0 W/m 5,1 C -3,8 C 24,7 km/h (4 Bft)
18.02.2015 18:30 5,8 C 95 % 1032,5 hPa 0,0 l/m 29,0 km/h (5 Bft) W 270 0 min 0 W/m 5,1 C -5,0 C 29,0 km/h (5 Bft)
18.02.2015 18:45 5,8 C 95 % 1032,5 hPa 0,0 l/m 27,5 km/h (5 Bft) W 270 0 min 0 W/m 5,1 C -4,6 C 27,5 km/h (5 Bft)
18.02.2015 19:00 5,8 C 95 % 1031,5 hPa 0,0 l/m 31,0 km/h (5 Bft) W 270 0 min 0 W/m 5,1 C -5,5 C 31,0 km/h (5 Bft)
18.02.2015 19:15 5,8 C 95 % 1031,5 hPa 0,0 l/m 27,0 km/h (5 Bft) W 265 0 min 0 W/m 5,1 C -4,4 C 27,0 km/h (5 Bft)
18.02.2015 19:30 4,2 C 95 % 1031,5 hPa 0,0 l/m 33,2 km/h (5 Bft) W 265 0 min 0 W/m 3,5 C -8,3 C 33,2 km/h (5 Bft)
18.02.2015 19:45 4,2 C 95 % 1031,5 hPa 0,0 l/m 34,4 km/h (5 Bft) W 265 0 min 0 W/m 3,5 C -8,6 C 34,4 km/h (5 Bft)
18.02.2015 20:00 4,2 C 95 % 1031,5 hPa 0,0 l/m 31,4 km/h (5 Bft) W 275 0 min 0 W/m 3,5 C -7,9 C 31,4 km/h (5 Bft)
18.02.2015 20:15 4,2 C 95 % 1031,5 hPa 0,0 l/m 31,6 km/h (5 Bft) W 275 0 min 0 W/m 3,5 C -7,9 C 31,6 km/h (5 Bft)
18.02.2015 20:30 4,2 C 95 % 1031,5 hPa 0,0 l/m 29,3 km/h (5 Bft) W 270 0 min 0 W/m 3,5 C -7,3 C 29,3 km/h (5 Bft)
18.02.2015 20:45 4,2 C 95 % 1031,5 hPa 0,0 l/m 32,6 km/h (5 Bft) W 275 0 min 0 W/m 3,5 C -8,2 C 32,6 km/h (5 Bft)
18.02.2015 21:00 4,2 C 95 % 1031,5 hPa 0,0 l/m 32,4 km/h (5 Bft) W 275 0 min 0 W/m 3,5 C -8,1 C 32,4 km/h (5 Bft)
18.02.2015 21:15 4,2 C 95 % 1031,5 hPa 0,0 l/m 34,8 km/h (5 Bft) W 270 0 min 0 W/m 3,5 C -8,7 C 34,8 km/h (5 Bft)
18.02.2015 21:30 4,2 C 95 % 1031,5 hPa 0,0 l/m 30,6 km/h (5 Bft) W 275 0 min 0 W/m 3,5 C -7,7 C 30,6 km/h (5 Bft)
18.02.2015 21:45 4,2 C 95 % 1031,5 hPa 0,0 l/m 26,6 km/h (4 Bft) W 270 0 min 0 W/m 3,5 C -6,5 C 26,6 km/h (4 Bft)
18.02.2015 22:00 4,2 C 95 % 1030,5 hPa 0,0 l/m 28,1 km/h (5 Bft) W 275 0 min 0 W/m 3,5 C -7,0 C 28,1 km/h (5 Bft)
18.02.2015 22:15 4,2 C 95 % 1030,5 hPa 0,0 l/m 30,7 km/h (5 Bft) W 275 0 min 0 W/m 3,5 C -7,7 C 30,7 km/h (5 Bft)
18.02.2015 22:30 2,2 C 44 % 1030,5 hPa 0,0 l/m 30,6 km/h (5 Bft) W 270 0 min 0 W/m -8,8 C -10,5 C 30,6 km/h (5 Bft)
18.02.2015 22:45 2,2 C 48 % 1030,5 hPa 0,0 l/m 32,5 km/h (5 Bft) W 270 0 min 0 W/m -7,6 C -11,0 C 32,5 km/h (5 Bft)
18.02.2015 23:00 2,0 C 51 % 1030,5 hPa 0,0 l/m 28,3 km/h (5 Bft) W 275 0 min 0 W/m -7,1 C -10,1 C 28,3 km/h (5 Bft)
18.02.2015 23:15 2,0 C 54 % 1030,5 hPa 0,0 l/m 32,5 km/h (5 Bft) W 270 0 min 0 W/m -6,3 C -11,3 C 32,5 km/h (5 Bft)
18.02.2015 23:30 2,0 C 55 % 1030,5 hPa 0,0 l/m 27,6 km/h (5 Bft) W 270 0 min 0 W/m -6,1 C -9,9 C 27,6 km/h (5 Bft)
18.02.2015 23:45 1,8 C 57 % 1030,5 hPa 0,0 l/m 28,4 km/h (5 Bft) W 270 0 min 0 W/m -5,8 C -10,4 C 28,4 km/h (5 Bft)
_ Min-Zeit 07:45 22:30 22:00 - 04:00 - - - - 22:30 09:15 04:00
Minimum _ 0,1 C 44 % 1030,5 hPa - 12,1 km/h (2 Bft) - - - - -8,8 C -11,4 C 12,1 km/h (2 Bft)
_ Max-Zeit 11:45 16:14 07:45 00:00 14:15 - - 00:00 00:00 16:14 16:00 14:15
Maximum _ 7,0 C 95 % 1037,5 hPa 0,0 l/m 38,2 km/h
W (6 Bft)
- - 0 min 0 W/m 5,4 C -2,9 C 38,2 km/h
W (6 Bft)
Durchschnitt _ 3,4 C 86 % 1034,7 hPa #0,0 l/m 25,0 km/h (4 Bft) W - #0 min. 0 W/m 1,2 C -6,5 C 25,0 km/h (4 Bft)
copyright by Holger Just